sensor_id;sensor_type;location;lat;lon;timestamp;temperature;humidity
43963;DHT22;29622;45.534;9.242;2023-03-23T00:02:43;17.90;37.10
43963;DHT22;29622;45.534;9.242;2023-03-23T00:07:45;17.90;37.50
43963;DHT22;29622;45.534;9.242;2023-03-23T00:12:46;18.00;37.50
43963;DHT22;29622;45.534;9.242;2023-03-23T00:17:49;18.10;37.40
43963;DHT22;29622;45.534;9.242;2023-03-23T00:22:51;18.10;37.40
43963;DHT22;29622;45.534;9.242;2023-03-23T00:27:52;18.00;37.50
43963;DHT22;29622;45.534;9.242;2023-03-23T00:32:52;18.10;37.80
43963;DHT22;29622;45.534;9.242;2023-03-23T00:37:53;18.10;37.70
43963;DHT22;29622;45.534;9.242;2023-03-23T00:42:56;18.00;37.60
43963;DHT22;29622;45.534;9.242;2023-03-23T00:47:56;17.90;37.70
43963;DHT22;29622;45.534;9.242;2023-03-23T00:53:05;17.80;37.70
43963;DHT22;29622;45.534;9.242;2023-03-23T00:58:06;17.60;37.70
43963;DHT22;29622;45.534;9.242;2023-03-23T01:03:07;17.60;37.90
43963;DHT22;29622;45.534;9.242;2023-03-23T01:08:09;17.50;38.00
43963;DHT22;29622;45.534;9.242;2023-03-23T01:13:11;17.50;38.10
43963;DHT22;29622;45.534;9.242;2023-03-23T01:18:13;17.50;38.20
43963;DHT22;29622;45.534;9.242;2023-03-23T01:23:13;17.40;38.30
43963;DHT22;29622;45.534;9.242;2023-03-23T01:28:15;17.40;38.30
43963;DHT22;29622;45.534;9.242;2023-03-23T01:33:16;17.40;38.40
43963;DHT22;29622;45.534;9.242;2023-03-23T01:38:17;17.30;38.50
43963;DHT22;29622;45.534;9.242;2023-03-23T01:43:19;17.30;38.50
43963;DHT22;29622;45.534;9.242;2023-03-23T01:48:35;17.20;38.50
43963;DHT22;29622;45.534;9.242;2023-03-23T01:53:48;17.20;38.60
43963;DHT22;29622;45.534;9.242;2023-03-23T01:58:51;17.10;38.60
43963;DHT22;29622;45.534;9.242;2023-03-23T02:03:54;17.10;38.70
43963;DHT22;29622;45.534;9.242;2023-03-23T02:08:55;17.10;38.80
43963;DHT22;29622;45.534;9.242;2023-03-23T02:13:57;17.10;38.90
43963;DHT22;29622;45.534;9.242;2023-03-23T02:19:10;17.10;39.00
43963;DHT22;29622;45.534;9.242;2023-03-23T02:35:12;17.10;39.10
43963;DHT22;29622;45.534;9.242;2023-03-23T02:40:19;17.10;39.20
43963;DHT22;29622;45.534;9.242;2023-03-23T02:45:23;17.10;39.20
43963;DHT22;29622;45.534;9.242;2023-03-23T02:50:27;17.00;39.20
43963;DHT22;29622;45.534;9.242;2023-03-23T02:55:31;17.00;39.20
43963;DHT22;29622;45.534;9.242;2023-03-23T03:00:37;17.00;39.30
43963;DHT22;29622;45.534;9.242;2023-03-23T03:05:51;17.00;39.30
43963;DHT22;29622;45.534;9.242;2023-03-23T03:11:09;17.00;39.40
43963;DHT22;29622;45.534;9.242;2023-03-23T03:16:44;17.00;39.60
43963;DHT22;29622;45.534;9.242;2023-03-23T03:21:48;17.00;39.70
43963;DHT22;29622;45.534;9.242;2023-03-23T03:26:58;17.00;39.70
43963;DHT22;29622;45.534;9.242;2023-03-23T03:32:12;16.90;39.80
43963;DHT22;29622;45.534;9.242;2023-03-23T03:37:15;16.90;39.80
43963;DHT22;29622;45.534;9.242;2023-03-23T03:42:17;16.90;39.90
43963;DHT22;29622;45.534;9.242;2023-03-23T03:47:18;16.90;40.00
43963;DHT22;29622;45.534;9.242;2023-03-23T03:52:18;16.80;40.10
43963;DHT22;29622;45.534;9.242;2023-03-23T03:57:19;16.80;40.10
43963;DHT22;29622;45.534;9.242;2023-03-23T04:02:46;16.80;40.30
43963;DHT22;29622;45.534;9.242;2023-03-23T04:08:05;16.90;40.30
43963;DHT22;29622;45.534;9.242;2023-03-23T04:13:06;16.90;40.40
43963;DHT22;29622;45.534;9.242;2023-03-23T04:18:06;16.80;40.50
43963;DHT22;29622;45.534;9.242;2023-03-23T04:23:09;16.80;40.60
43963;DHT22;29622;45.534;9.242;2023-03-23T04:28:10;16.70;40.70
43963;DHT22;29622;45.534;9.242;2023-03-23T04:33:23;16.70;40.90
43963;DHT22;29622;45.534;9.242;2023-03-23T04:38:27;16.60;41.00
43963;DHT22;29622;45.534;9.242;2023-03-23T04:43:34;16.60;41.10
43963;DHT22;29622;45.534;9.242;2023-03-23T04:48:52;16.60;41.20
43963;DHT22;29622;45.534;9.242;2023-03-23T04:53:59;16.50;41.30
43963;DHT22;29622;45.534;9.242;2023-03-23T04:59:02;16.50;41.50
43963;DHT22;29622;45.534;9.242;2023-03-23T05:04:08;16.50;42.10
43963;DHT22;29622;45.534;9.242;2023-03-23T05:09:12;16.50;41.70
43963;DHT22;29622;45.534;9.242;2023-03-23T05:14:13;16.50;41.90
43963;DHT22;29622;45.534;9.242;2023-03-23T05:19:16;16.50;42.00
43963;DHT22;29622;45.534;9.242;2023-03-23T05:24:18;16.50;42.20
43963;DHT22;29622;45.534;9.242;2023-03-23T05:29:19;16.50;42.40
43963;DHT22;29622;45.534;9.242;2023-03-23T05:34:29;16.40;42.40
43963;DHT22;29622;45.534;9.242;2023-03-23T05:39:33;16.50;42.60
43963;DHT22;29622;45.534;9.242;2023-03-23T05:44:54;16.50;42.60
43963;DHT22;29622;45.534;9.242;2023-03-23T05:49:56;16.50;42.70
43963;DHT22;29622;45.534;9.242;2023-03-23T05:54:58;16.50;42.80
43963;DHT22;29622;45.534;9.242;2023-03-23T06:00:00;16.50;42.90
43963;DHT22;29622;45.534;9.242;2023-03-23T06:05:13;16.50;43.20
43963;DHT22;29622;45.534;9.242;2023-03-23T06:10:16;16.60;43.40
43963;DHT22;29622;45.534;9.242;2023-03-23T06:15:21;16.60;43.30
43963;DHT22;29622;45.534;9.242;2023-03-23T06:20:43;16.80;43.40
43963;DHT22;29622;45.534;9.242;2023-03-23T06:26:13;16.90;43.20
43963;DHT22;29622;45.534;9.242;2023-03-23T06:31:17;16.90;43.00
43963;DHT22;29622;45.534;9.242;2023-03-23T06:36:21;16.80;43.00
43963;DHT22;29622;45.534;9.242;2023-03-23T06:41:34;16.80;43.30
43963;DHT22;29622;45.534;9.242;2023-03-23T06:46:35;16.90;43.70
43963;DHT22;29622;45.534;9.242;2023-03-23T06:51:59;17.20;43.90
43963;DHT22;29622;45.534;9.242;2023-03-23T06:57:02;17.40;43.90
43963;DHT22;29622;45.534;9.242;2023-03-23T07:02:03;17.40;43.50
43963;DHT22;29622;45.534;9.242;2023-03-23T07:07:08;17.50;43.90
43963;DHT22;29622;45.534;9.242;2023-03-23T07:12:17;17.60;43.80
43963;DHT22;29622;45.534;9.242;2023-03-23T07:17:21;17.50;43.50
43963;DHT22;29622;45.534;9.242;2023-03-23T07:22:38;17.50;43.50
43963;DHT22;29622;45.534;9.242;2023-03-23T07:27:48;17.60;43.50
43963;DHT22;29622;45.534;9.242;2023-03-23T07:32:51;17.50;43.40
43963;DHT22;29622;45.534;9.242;2023-03-23T07:37:54;17.50;43.40
43963;DHT22;29622;45.534;9.242;2023-03-23T07:42:57;17.60;43.80
43963;DHT22;29622;45.534;9.242;2023-03-23T07:48:22;17.90;43.80
43963;DHT22;29622;45.534;9.242;2023-03-23T07:53:24;17.90;43.90
43963;DHT22;29622;45.534;9.242;2023-03-23T07:58:34;17.80;43.30
43963;DHT22;29622;45.534;9.242;2023-03-23T08:03:36;17.80;43.30
43963;DHT22;29622;45.534;9.242;2023-03-23T08:08:50;17.60;43.30
43963;DHT22;29622;45.534;9.242;2023-03-23T08:14:09;17.60;43.40
43963;DHT22;29622;45.534;9.242;2023-03-23T08:19:33;17.40;43.40
43963;DHT22;29622;45.534;9.242;2023-03-23T08:25:13;17.50;43.80
43963;DHT22;29622;45.534;9.242;2023-03-23T08:30:44;17.60;44.10
43963;DHT22;29622;45.534;9.242;2023-03-23T08:36:03;17.70;43.60
43963;DHT22;29622;45.534;9.242;2023-03-23T08:41:27;17.70;43.60
43963;DHT22;29622;45.534;9.242;2023-03-23T08:46:46;17.60;43.60
43963;DHT22;29622;45.534;9.242;2023-03-23T08:52:02;17.60;43.70
43963;DHT22;29622;45.534;9.242;2023-03-23T08:57:26;17.60;43.70
43963;DHT22;29622;45.534;9.242;2023-03-23T09:02:52;17.50;43.70
43963;DHT22;29622;45.534;9.242;2023-03-23T09:07:57;17.40;43.80
43963;DHT22;29622;45.534;9.242;2023-03-23T09:12:59;17.30;44.00
43963;DHT22;29622;45.534;9.242;2023-03-23T09:18:00;17.30;44.10
43963;DHT22;29622;45.534;9.242;2023-03-23T09:23:01;17.30;44.10
43963;DHT22;29622;45.534;9.242;2023-03-23T09:28:02;17.40;44.20
43963;DHT22;29622;45.534;9.242;2023-03-23T09:33:04;17.40;44.10
43963;DHT22;29622;45.534;9.242;2023-03-23T09:38:05;17.50;44.10
43963;DHT22;29622;45.534;9.242;2023-03-23T09:48:23;17.70;44.10
43963;DHT22;29622;45.534;9.242;2023-03-23T09:53:30;17.70;44.10
43963;DHT22;29622;45.534;9.242;2023-03-23T10:03:44;17.90;44.10
43963;DHT22;29622;45.534;9.242;2023-03-23T10:08:57;18.00;44.00
43963;DHT22;29622;45.534;9.242;2023-03-23T10:25:20;18.30;44.00
43963;DHT22;29622;45.534;9.242;2023-03-23T10:30:33;18.60;43.70
43963;DHT22;29622;45.534;9.242;2023-03-23T10:35:46;18.70;43.70
43963;DHT22;29622;45.534;9.242;2023-03-23T10:41:00;19.10;43.80
43963;DHT22;29622;45.534;9.242;2023-03-23T10:46:43;19.30;43.20
43963;DHT22;29622;45.534;9.242;2023-03-23T10:52:13;19.30;42.90
43963;DHT22;29622;45.534;9.242;2023-03-23T10:57:26;19.30;42.80
43963;DHT22;29622;45.534;9.242;2023-03-23T11:02:29;19.30;42.60
43963;DHT22;29622;45.534;9.242;2023-03-23T11:07:32;19.30;43.00
43963;DHT22;29622;45.534;9.242;2023-03-23T11:12:35;19.60;42.80
43963;DHT22;29622;45.534;9.242;2023-03-23T11:17:39;19.60;42.50
43963;DHT22;29622;45.534;9.242;2023-03-23T11:22:42;19.70;42.60
43963;DHT22;29622;45.534;9.242;2023-03-23T11:27:43;20.10;42.60
43963;DHT22;29622;45.534;9.242;2023-03-23T11:32:45;20.50;42.50
43963;DHT22;29622;45.534;9.242;2023-03-23T11:37:57;21.00;42.30
43963;DHT22;29622;45.534;9.242;2023-03-23T11:43:07;21.50;42.00
43963;DHT22;29622;45.534;9.242;2023-03-23T11:59:33;21.20;40.90
43963;DHT22;29622;45.534;9.242;2023-03-23T12:21:05;21.40;41.20
43963;DHT22;29622;45.534;9.242;2023-03-23T12:26:20;21.50;41.40
43963;DHT22;29622;45.534;9.242;2023-03-23T12:31:45;21.80;40.90
43963;DHT22;29622;45.534;9.242;2023-03-23T12:42:02;21.50;40.40
43963;DHT22;29622;45.534;9.242;2023-03-23T12:47:19;21.50;40.80
43963;DHT22;29622;45.534;9.242;2023-03-23T12:52:33;21.60;40.60
43963;DHT22;29622;45.534;9.242;2023-03-23T13:03:03;21.80;40.30
43963;DHT22;29622;45.534;9.242;2023-03-23T13:08:14;21.90;40.00
43963;DHT22;29622;45.534;9.242;2023-03-23T13:13:25;21.90;40.00
43963;DHT22;29622;45.534;9.242;2023-03-23T13:18:46;22.00;40.00
43963;DHT22;29622;45.534;9.242;2023-03-23T13:23:55;22.30;40.00
43963;DHT22;29622;45.534;9.242;2023-03-23T13:29:05;22.50;39.80
43963;DHT22;29622;45.534;9.242;2023-03-23T13:34:21;22.50;39.20
43963;DHT22;29622;45.534;9.242;2023-03-23T13:39:30;22.60;39.60
43963;DHT22;29622;45.534;9.242;2023-03-23T13:49:59;23.00;39.60
43963;DHT22;29622;45.534;9.242;2023-03-23T14:05:41;23.20;38.60
43963;DHT22;29622;45.534;9.242;2023-03-23T14:10:57;23.10;38.60
43963;DHT22;29622;45.534;9.242;2023-03-23T14:16:05;23.10;38.70
43963;DHT22;29622;45.534;9.242;2023-03-23T14:21:36;23.30;38.80
43963;DHT22;29622;45.534;9.242;2023-03-23T14:26:40;23.40;38.30
43963;DHT22;29622;45.534;9.242;2023-03-23T14:31:42;23.50;38.30
43963;DHT22;29622;45.534;9.242;2023-03-23T14:36:47;23.60;38.60
43963;DHT22;29622;45.534;9.242;2023-03-23T14:41:49;23.90;38.70
43963;DHT22;29622;45.534;9.242;2023-03-23T14:46:51;24.10;38.50
43963;DHT22;29622;45.534;9.242;2023-03-23T14:51:54;24.20;38.20
43963;DHT22;29622;45.534;9.242;2023-03-23T14:56:55;24.30;37.70
43963;DHT22;29622;45.534;9.242;2023-03-23T15:01:56;24.30;37.70
43963;DHT22;29622;45.534;9.242;2023-03-23T15:10:08;24.50;37.60
43963;DHT22;29622;45.534;9.242;2023-03-23T15:15:24;24.40;37.60
43963;DHT22;29622;45.534;9.242;2023-03-23T15:20:45;24.40;37.30
43963;DHT22;29622;45.534;9.242;2023-03-23T15:25:50;24.40;37.50
43963;DHT22;29622;45.534;9.242;2023-03-23T15:30:53;24.40;37.60
43963;DHT22;29622;45.534;9.242;2023-03-23T15:35:56;24.30;37.30
43963;DHT22;29622;45.534;9.242;2023-03-23T15:40:59;24.00;37.10
43963;DHT22;29622;45.534;9.242;2023-03-23T15:46:18;23.90;37.50
43963;DHT22;29622;45.534;9.242;2023-03-23T15:51:30;24.10;38.00
43963;DHT22;29622;45.534;9.242;2023-03-23T15:56:45;24.20;37.70
43963;DHT22;29622;45.534;9.242;2023-03-23T16:01:46;24.20;37.20
43963;DHT22;29622;45.534;9.242;2023-03-23T16:06:49;24.10;37.00
43963;DHT22;29622;45.534;9.242;2023-03-23T16:11:51;23.90;37.00
43963;DHT22;29622;45.534;9.242;2023-03-23T16:16:55;23.60;37.10
43963;DHT22;29622;45.534;9.242;2023-03-23T16:22:05;23.40;37.50
43963;DHT22;29622;45.534;9.242;2023-03-23T16:27:08;23.30;37.50
43963;DHT22;29622;45.534;9.242;2023-03-23T16:32:09;23.20;37.80
43963;DHT22;29622;45.534;9.242;2023-03-23T16:37:16;23.30;38.30
43963;DHT22;29622;45.534;9.242;2023-03-23T16:42:17;23.40;38.50
43963;DHT22;29622;45.534;9.242;2023-03-23T16:47:18;23.50;38.40
43963;DHT22;29622;45.534;9.242;2023-03-23T16:52:25;23.80;38.20
43963;DHT22;29622;45.534;9.242;2023-03-23T16:57:26;23.60;37.70
43963;DHT22;29622;45.534;9.242;2023-03-23T17:02:28;23.50;37.90
43963;DHT22;29622;45.534;9.242;2023-03-23T17:07:29;23.50;38.00
43963;DHT22;29622;45.534;9.242;2023-03-23T17:12:34;23.50;38.30
43963;DHT22;29622;45.534;9.242;2023-03-23T17:17:35;23.40;38.10
43963;DHT22;29622;45.534;9.242;2023-03-23T17:22:37;23.20;38.00
43963;DHT22;29622;45.534;9.242;2023-03-23T17:27:38;22.90;38.10
43963;DHT22;29622;45.534;9.242;2023-03-23T17:32:39;22.60;38.30
43963;DHT22;29622;45.534;9.242;2023-03-23T17:37:40;22.40;38.60
43963;DHT22;29622;45.534;9.242;2023-03-23T17:42:41;22.10;38.90
43963;DHT22;29622;45.534;9.242;2023-03-23T17:47:41;21.80;39.00
43963;DHT22;29622;45.534;9.242;2023-03-23T17:52:42;21.70;39.20
43963;DHT22;29622;45.534;9.242;2023-03-23T17:57:43;21.40;39.20
43963;DHT22;29622;45.534;9.242;2023-03-23T18:02:44;21.20;39.30
43963;DHT22;29622;45.534;9.242;2023-03-23T18:07:44;21.00;39.40
43963;DHT22;29622;45.534;9.242;2023-03-23T18:12:48;20.80;39.60
43963;DHT22;29622;45.534;9.242;2023-03-23T18:17:50;20.50;39.90
43963;DHT22;29622;45.534;9.242;2023-03-23T18:22:51;20.50;40.20
43963;DHT22;29622;45.534;9.242;2023-03-23T18:27:52;20.30;40.50
43963;DHT22;29622;45.534;9.242;2023-03-23T18:32:53;20.00;40.10
43963;DHT22;29622;45.534;9.242;2023-03-23T18:37:53;19.80;40.40
43963;DHT22;29622;45.534;9.242;2023-03-23T18:42:54;19.70;40.70
43963;DHT22;29622;45.534;9.242;2023-03-23T18:47:55;19.50;40.90
43963;DHT22;29622;45.534;9.242;2023-03-23T18:52:56;19.50;41.10
43963;DHT22;29622;45.534;9.242;2023-03-23T18:57:57;19.50;41.20
43963;DHT22;29622;45.534;9.242;2023-03-23T19:02:59;19.40;41.20
43963;DHT22;29622;45.534;9.242;2023-03-23T19:08:00;19.30;41.40
43963;DHT22;29622;45.534;9.242;2023-03-23T19:13:03;19.20;41.60
43963;DHT22;29622;45.534;9.242;2023-03-23T19:18:07;19.00;41.60
43963;DHT22;29622;45.534;9.242;2023-03-23T19:23:08;19.00;41.70
43963;DHT22;29622;45.534;9.242;2023-03-23T19:28:08;18.90;41.80
43963;DHT22;29622;45.534;9.242;2023-03-23T19:33:09;18.80;41.90
43963;DHT22;29622;45.534;9.242;2023-03-23T19:38:10;18.70;42.10
43963;DHT22;29622;45.534;9.242;2023-03-23T19:43:10;18.70;42.20
43963;DHT22;29622;45.534;9.242;2023-03-23T19:48:11;18.60;42.40
43963;DHT22;29622;45.534;9.242;2023-03-23T19:53:13;18.50;42.50
43963;DHT22;29622;45.534;9.242;2023-03-23T19:58:14;18.40;42.60
43963;DHT22;29622;45.534;9.242;2023-03-23T20:03:15;18.40;42.80
43963;DHT22;29622;45.534;9.242;2023-03-23T20:08:16;18.30;42.90
43963;DHT22;29622;45.534;9.242;2023-03-23T20:13:17;18.20;43.10
43963;DHT22;29622;45.534;9.242;2023-03-23T20:18:17;18.20;43.10
43963;DHT22;29622;45.534;9.242;2023-03-23T20:23:18;18.20;43.30
43963;DHT22;29622;45.534;9.242;2023-03-23T20:28:19;18.10;43.50
43963;DHT22;29622;45.534;9.242;2023-03-23T20:33:20;17.90;43.60
43963;DHT22;29622;45.534;9.242;2023-03-23T20:38:20;17.80;43.80
43963;DHT22;29622;45.534;9.242;2023-03-23T20:43:25;17.70;44.00
43963;DHT22;29622;45.534;9.242;2023-03-23T20:48:30;17.70;44.30
43963;DHT22;29622;45.534;9.242;2023-03-23T20:53:32;17.70;44.30
43963;DHT22;29622;45.534;9.242;2023-03-23T20:58:34;17.70;44.30
43963;DHT22;29622;45.534;9.242;2023-03-23T21:03:38;17.50;44.50
43963;DHT22;29622;45.534;9.242;2023-03-23T21:08:39;17.50;44.70
43963;DHT22;29622;45.534;9.242;2023-03-23T21:13:40;17.50;44.80
43963;DHT22;29622;45.534;9.242;2023-03-23T21:18:41;17.30;44.90
43963;DHT22;29622;45.534;9.242;2023-03-23T21:23:43;17.20;45.10
43963;DHT22;29622;45.534;9.242;2023-03-23T21:28:46;17.10;45.30
43963;DHT22;29622;45.534;9.242;2023-03-23T21:33:49;17.10;45.60
43963;DHT22;29622;45.534;9.242;2023-03-23T21:38:50;17.00;45.60
43963;DHT22;29622;45.534;9.242;2023-03-23T21:43:51;16.90;45.80
43963;DHT22;29622;45.534;9.242;2023-03-23T21:48:52;16.90;46.20
43963;DHT22;29622;45.534;9.242;2023-03-23T21:53:54;16.90;46.20
43963;DHT22;29622;45.534;9.242;2023-03-23T21:58:55;16.90;46.20
43963;DHT22;29622;45.534;9.242;2023-03-23T22:03:56;16.90;46.30
43963;DHT22;29622;45.534;9.242;2023-03-23T22:08:57;16.80;46.30
43963;DHT22;29622;45.534;9.242;2023-03-23T22:13:59;16.70;46.50
43963;DHT22;29622;45.534;9.242;2023-03-23T22:19:00;16.80;46.70
43963;DHT22;29622;45.534;9.242;2023-03-23T22:24:01;16.90;46.80
43963;DHT22;29622;45.534;9.242;2023-03-23T22:29:03;16.90;46.90
43963;DHT22;29622;45.534;9.242;2023-03-23T22:34:04;16.90;46.90
43963;DHT22;29622;45.534;9.242;2023-03-23T22:39:06;16.90;46.80
43963;DHT22;29622;45.534;9.242;2023-03-23T22:44:14;16.90;47.50
43963;DHT22;29622;45.534;9.242;2023-03-23T22:49:15;16.90;47.10
43963;DHT22;29622;45.534;9.242;2023-03-23T22:54:16;16.80;47.10
43963;DHT22;29622;45.534;9.242;2023-03-23T22:59:16;16.70;47.20
43963;DHT22;29622;45.534;9.242;2023-03-23T23:04:18;16.70;47.40
43963;DHT22;29622;45.534;9.242;2023-03-23T23:09:19;16.70;47.40
43963;DHT22;29622;45.534;9.242;2023-03-23T23:14:21;16.70;47.60
43963;DHT22;29622;45.534;9.242;2023-03-23T23:19:22;16.70;47.70
43963;DHT22;29622;45.534;9.242;2023-03-23T23:24:23;16.80;47.50
43963;DHT22;29622;45.534;9.242;2023-03-23T23:29:25;16.80;47.60
43963;DHT22;29622;45.534;9.242;2023-03-23T23:34:26;16.80;47.70
43963;DHT22;29622;45.534;9.242;2023-03-23T23:39:28;16.80;47.80
43963;DHT22;29622;45.534;9.242;2023-03-23T23:44:30;17.00;47.90
43963;DHT22;29622;45.534;9.242;2023-03-23T23:49:31;17.00;47.70
43963;DHT22;29622;45.534;9.242;2023-03-23T23:54:34;17.00;47.80
43963;DHT22;29622;45.534;9.242;2023-03-23T23:59:36;16.90;47.70
